Погода Шахтенкина 2 недели

Ростовская область, Россия

22 июля-04 августа
  • 22июля
    Сегодня
    +20°
    +33°
    Облачно с прояснениями
    ВремяПогодаТемператураВлажностьДавлениеВетер, м/сВероятность осадков
    00:00Облачно с прояснениями+23°C34 %743 мм2.2 м/с2 %
    03:00Облачно с прояснениями+21°C44 %742 мм1.4 м/с2 %
    06:00Небольшая облачность+22°C42 %742 мм2.1 м/с2 %
    09:00Облачно с прояснениями+29°C31 %743 мм2.0 м/с4 %
    12:00Облачно с прояснениями+32°C37 %743 мм2.8 м/с21 %
    15:00Облачно с прояснениями+33°C33 %742 мм2.1 м/с28 %
    18:00Пасмурно, сплошная облачность+29°C44 %742 мм3.4 м/с18 %
    21:00Облачно с прояснениями+27°C50 %742 мм2.2 м/с2 %
  • 23июля
    Вторник
    +17°
    +28°
    Пасмурно, сплошная облачность
    ВремяПогодаТемператураВлажностьДавлениеВетер, м/сВероятность осадков
    00:00Ясно и безоблачно+23°C50 %742 мм4.4 м/с2 %
    03:00Практически безоблачно+22°C55 %742 мм5.0 м/с2 %
    06:00Небольшая облачность+21°C63 %742 мм4.2 м/с8 %
    09:00Облачно с прояснениями+24°C60 %742 мм3.5 м/с34 %
    12:00Облачно с прояснениями+26°C51 %742 мм3.1 м/с30 %
    15:00Пасмурно, сплошная облачность+28°C42 %742 мм1.9 м/с21 %
    18:00Практически безоблачно+28°C39 %741 мм2.5 м/с17 %
    21:00Ясно и безоблачно+24°C51 %742 мм5.5 м/с14 %
  • 24июля
    Среда
    +17°
    +30°
    Практически безоблачно
    ВремяПогодаТемператураВлажностьДавлениеВетер, м/сВероятность осадков
    00:00Ясно и безоблачно+21°C64 %741 мм2.6 м/с1 %
    03:00Ясно и безоблачно+18°C73 %741 мм3.0 м/с2 %
    06:00Ясно и безоблачно+19°C75 %741 мм3.2 м/с2 %
    09:00Ясно и безоблачно+25°C50 %741 мм3.4 м/с2 %
    12:00Ясно и безоблачно+29°C38 %741 мм3.1 м/с25 %
    15:00Практически безоблачно+29°C36 %741 мм3.6 м/с18 %
    18:00Практически безоблачно+26°C42 %741 мм4.0 м/с35 %
    21:00Ясно и безоблачно+23°C54 %741 мм3.1 м/с3 %
  • 25июля
    Четверг
    +18°
    +31°
    Ясно и безоблачно
    ВремяПогодаТемператураВлажностьДавлениеВетер, м/сВероятность осадков
    00:00Ясно и безоблачно+20°C65 %742 мм2.5 м/с2 %
    03:00Ясно и безоблачно+18°C70 %741 мм2.8 м/с2 %
    06:00Ясно и безоблачно+18°C61 %741 мм3.6 м/с2 %
    09:00Ясно и безоблачно+26°C31 %742 мм3.6 м/с2 %
    12:00Ясно и безоблачно+30°C25 %742 мм2.9 м/с2 %
    15:00Ясно и безоблачно+31°C23 %741 мм3.0 м/с3 %
    18:00Ясно и безоблачно+30°C23 %741 мм3.6 м/с2 %
    21:00Ясно и безоблачно+25°C32 %742 мм2.4 м/с2 %
  • 26июля
    Пятница
    +19°
    +33°
    Практически безоблачно
    ВремяПогодаТемператураВлажностьДавлениеВетер, м/сВероятность осадков
    00:00Ясно и безоблачно+21°C35 %742 мм2.1 м/с2 %
    03:00Ясно и безоблачно+19°C43 %742 мм2.6 м/с2 %
    06:00Ясно и безоблачно+19°C44 %742 мм3.5 м/с2 %
    09:00Небольшая облачность+28°C26 %743 мм3.7 м/с2 %
    12:00Практически безоблачно+31°C20 %743 мм3.2 м/с2 %
    15:00Практически безоблачно+33°C18 %742 мм3.6 м/с2 %
    18:00Облачно с прояснениями+31°C19 %742 мм2.7 м/с2 %
    21:00Облачно с прояснениями+26°C27 %743 мм3.4 м/с2 %
Мы используем cookies
Соглашаюсь